Hispania Spirit — EBZZ — position and weather

sailwx.info

Track history (hours):
 
Tides and Currents Weather Stations Pressure Air Temp Water Temp Dewpoint Dewpoint Depression Visibility Wind Speed Wind Dir Waves Ship Positions

Hispania Spirit

Last reported at 2018-Apr-28 03:50 UTC. Time now 2018-May-24 02:19 UTC.
Position N 01°23' E 103°15'.
Warning: this ship's position is 25 days out of date.

Length 280 m; draft 9.4 m.

Type: Ship (hazmat cat A). MMSI: 224985000.

Date/timePositionNaut miles runAvg speedWind from/ knotsBaromVisibWave heightAir tempDewpointWater temp
2018-Apr-28 03:50N 01°23' E 103°15'817.9
2018-Apr-28 03:24N 01°18' E 103°21'816.9
2018-Apr-28 02:57N 01°13' E 103°27'817.0
2018-Apr-28 02:30N 01°12' E 103°34'510.0
2018-Apr-28 01:59N 01°11' E 103°40'1 1.3
2018-Apr-28 01:25N 01°12' E 103°40'0 0.1
2018-Apr-28 00:58N 01°12' E 103°40'0 0.1
2018-Apr-28 00:29N 01°12' E 103°40'0 0.0
2018-Apr-27 23:56N 01°12' E 103°40'0 0.0
2018-Apr-27 23:30N 01°12' E 103°40'0 0.0
2018-Apr-27 22:59N 01°12' E 103°40'0 0.0
2018-Apr-27 22:29N 01°12' E 103°40'0 0.0
2018-Apr-27 21:58N 01°12' E 103°40'0 0.2
2018-Apr-27 21:29N 01°12' E 103°40'0 0.2
2018-Apr-27 20:59N 01°12' E 103°40'0 0.1
2018-Apr-27 20:29N 01°12' E 103°40'0 0.1
2018-Apr-27 19:59N 01°12' E 103°40'0 0.0
2018-Apr-27 19:28N 01°12' E 103°40'0 0.0
2018-Apr-27 18:56N 01°12' E 103°40'0 0.0
2018-Apr-27 18:28N 01°12' E 103°40'0 0.1
2018-Apr-27 17:55N 01°12' E 103°40'0 0.0
2018-Apr-27 17:29N 01°12' E 103°40'0 0.0
2018-Apr-27 16:54N 01°12' E 103°40'0 0.1
2018-Apr-27 16:26N 01°12' E 103°40'0 0.1
2018-Apr-27 15:56N 01°12' E 103°40'0 0.2
2018-Apr-27 15:27N 01°12' E 103°40'0 0.2
2018-Apr-27 14:56N 01°12' E 103°40'0 0.0
2018-Apr-27 14:29N 01°12' E 103°40'0 0.1
2018-Apr-27 13:59N 01°12' E 103°40'0 0.1
2018-Apr-27 13:26N 01°12' E 103°40'0 0.0
2018-Apr-27 12:59N 01°12' E 103°40'0 0.0
2018-Apr-27 12:29N 01°12' E 103°40'0 0.1
2018-Apr-27 11:50N 01°12' E 103°40'0 0.2
2018-Apr-27 11:29N 01°12' E 103°40'0 0.0
2018-Apr-27 10:54N 01°12' E 103°40'0 0.1
2018-Apr-27 10:17N 01°12' E 103°40'0 0.0
2018-Apr-27 09:59N 01°12' E 103°40'0 0.2
2018-Apr-27 09:29N 01°12' E 103°40'0 0.2
2018-Apr-27 08:59N 01°12' E 103°40'0 0.5
2018-Apr-27 08:26N 01°12' E 103°40'0 0.0
2018-Apr-27 07:47N 01°12' E 103°40'0 0.0
2018-Apr-27 07:29N 01°12' E 103°40'0 0.1
2018-Apr-27 06:56N 01°12' E 103°40'0 0.0
2018-Apr-27 06:23N 01°12' E 103°40'0 0.0
2018-Apr-27 05:58N 01°12' E 103°40'0 0.4
2018-Apr-27 05:31N 01°12' E 103°40'1 1.4
2018-Apr-27 05:00N 01°11' E 103°41'4 7.2
2018-Apr-27 04:30N 01°09' E 103°43'3 6.3
2018-Apr-27 04:00N 01°10' E 103°47'3 6.0
2018-Apr-27 03:30N 01°11' E 103°49'611.0
2018-Apr-27 03:00N 01°13' E 103°54'816.1
2018-Apr-27 02:30N 01°16' E 104°02'816.2
2018-Apr-27 01:59N 01°17' E 104°10'5 9.3
2018-Apr-27 01:27N 01°17' E 104°15'4 8.4
2018-Apr-27 00:59N 01°18' E 104°19'613.3
2018-Apr-27 00:30N 01°22' E 104°24'816.0
2018-Apr-26 23:58N 01°28' E 104°30'  
2018-Apr-19 16:29N 35°56' E 130°20'612.4
2018-Apr-19 16:00N 35°50' E 130°20'712.5
2018-Apr-19 15:28N 35°44' E 130°20'612.5
2018-Apr-19 15:00N 35°38' E 130°20'612.3
2018-Apr-19 14:30N 35°32' E 130°20'1012.3
2018-Apr-19 13:41N 35°22' E 130°20'212.3
2018-Apr-19 13:30N 35°19' E 130°20'712.4
2018-Apr-19 12:57N 35°13' E 130°20'612.3
2018-Apr-19 12:30N 35°07' E 130°20'812.2
2018-Apr-19 11:53N 34°60' E 130°19'512.1
2018-Apr-19 11:30N 34°56' E 130°16'612.3
2018-Apr-19 11:00N 34°51' E 130°12'612.3
2018-Apr-19 10:30N 34°46' E 130°08'612.3
2018-Apr-19 10:00N 34°41' E 130°03'612.4
2018-Apr-19 09:30N 34°35' E 129°60'612.4
2018-Apr-19 09:00N 34°30' E 129°56'612.6
2018-Apr-19 08:30N 34°25' E 129°52'612.3
2018-Apr-19 08:00N 34°19' E 129°48'612.4
2018-Apr-19 07:30N 34°15' E 129°42'612.3
2018-Apr-19 07:00N 34°10' E 129°39'612.5
2018-Apr-19 06:30N 34°04' E 129°34'612.7
2018-Apr-19 06:00N 33°60' E 129°29'713.2
2018-Apr-19 05:30N 33°56' E 129°23'713.1
2018-Apr-19 05:00N 33°51' E 129°18'712.8
2018-Apr-19 04:29N 33°46' E 129°12'612.6
2018-Apr-19 03:58N 33°44' E 129°04'613.1
2018-Apr-19 03:30N 33°40' E 128°59'713.4
2018-Apr-19 03:00N 33°36' E 128°52'713.2
2018-Apr-19 02:30N 33°32' E 128°46'713.2
2018-Apr-19 01:59N 33°28' E 128°40'813.2
2018-Apr-19 01:24N 33°23' E 128°33'712.9
2018-Apr-19 00:51N 33°17' E 128°29'513.2
2018-Apr-19 00:30N 33°12' E 128°26'1712.9
2018-Apr-18 23:11N 32°56' E 128°21'213.1
2018-Apr-18 23:00N 32°54' E 128°21'  
Track history (hours):
 
Tides and Currents Weather Stations Pressure Air Temp Water Temp Dewpoint Dewpoint Depression Visibility Wind Speed Wind Dir Waves Ship Positions

Hispania Spirit

Last reported at 2018-Apr-28 03:50 UTC. Time now 2018-May-24 02:19 UTC.
Position N 01°23' E 103°15'.
Warning: this ship's position is 25 days out of date.

Length 280 m; draft 9.4 m.

Type: Ship (hazmat cat A). MMSI: 224985000.

Date/timePositionNaut miles runAvg speedWind from/ knotsBaromVisibWave heightAir tempDewpointWater temp
2018-Apr-28 03:50N 01°23' E 103°15'817.9
2018-Apr-28 03:24N 01°18' E 103°21'816.9
2018-Apr-28 02:57N 01°13' E 103°27'817.0
2018-Apr-28 02:30N 01°12' E 103°34'510.0
2018-Apr-28 01:59N 01°11' E 103°40'1 1.3
2018-Apr-28 01:25N 01°12' E 103°40'0 0.1
2018-Apr-28 00:58N 01°12' E 103°40'0 0.1
2018-Apr-28 00:29N 01°12' E 103°40'0 0.0
2018-Apr-27 23:56N 01°12' E 103°40'0 0.0
2018-Apr-27 23:30N 01°12' E 103°40'0 0.0
2018-Apr-27 22:59N 01°12' E 103°40'0 0.0
2018-Apr-27 22:29N 01°12' E 103°40'0 0.0
2018-Apr-27 21:58N 01°12' E 103°40'0 0.2
2018-Apr-27 21:29N 01°12' E 103°40'0 0.2
2018-Apr-27 20:59N 01°12' E 103°40'0 0.1
2018-Apr-27 20:29N 01°12' E 103°40'0 0.1
2018-Apr-27 19:59N 01°12' E 103°40'0 0.0
2018-Apr-27 19:28N 01°12' E 103°40'0 0.0
2018-Apr-27 18:56N 01°12' E 103°40'0 0.0
2018-Apr-27 18:28N 01°12' E 103°40'0 0.1
2018-Apr-27 17:55N 01°12' E 103°40'0 0.0
2018-Apr-27 17:29N 01°12' E 103°40'0 0.0
2018-Apr-27 16:54N 01°12' E 103°40'0 0.1
2018-Apr-27 16:26N 01°12' E 103°40'0 0.1
2018-Apr-27 15:56N 01°12' E 103°40'0 0.2
2018-Apr-27 15:27N 01°12' E 103°40'0 0.2
2018-Apr-27 14:56N 01°12' E 103°40'0 0.0
2018-Apr-27 14:29N 01°12' E 103°40'0 0.1
2018-Apr-27 13:59N 01°12' E 103°40'0 0.1
2018-Apr-27 13:26N 01°12' E 103°40'0 0.0
2018-Apr-27 12:59N 01°12' E 103°40'0 0.0
2018-Apr-27 12:29N 01°12' E 103°40'0 0.1
2018-Apr-27 11:50N 01°12' E 103°40'0 0.2
2018-Apr-27 11:29N 01°12' E 103°40'0 0.0
2018-Apr-27 10:54N 01°12' E 103°40'0 0.1
2018-Apr-27 10:17N 01°12' E 103°40'0 0.0
2018-Apr-27 09:59N 01°12' E 103°40'0 0.2
2018-Apr-27 09:29N 01°12' E 103°40'0 0.2
2018-Apr-27 08:59N 01°12' E 103°40'0 0.5
2018-Apr-27 08:26N 01°12' E 103°40'0 0.0
2018-Apr-27 07:47N 01°12' E 103°40'0 0.0
2018-Apr-27 07:29N 01°12' E 103°40'0 0.1
2018-Apr-27 06:56N 01°12' E 103°40'0 0.0
2018-Apr-27 06:23N 01°12' E 103°40'0 0.0
2018-Apr-27 05:58N 01°12' E 103°40'0 0.4
2018-Apr-27 05:31N 01°12' E 103°40'1 1.4
2018-Apr-27 05:00N 01°11' E 103°41'4 7.2
2018-Apr-27 04:30N 01°09' E 103°43'3 6.3
2018-Apr-27 04:00N 01°10' E 103°47'3 6.0
2018-Apr-27 03:30N 01°11' E 103°49'611.0
2018-Apr-27 03:00N 01°13' E 103°54'816.1
2018-Apr-27 02:30N 01°16' E 104°02'816.2
2018-Apr-27 01:59N 01°17' E 104°10'5 9.3
2018-Apr-27 01:27N 01°17' E 104°15'4 8.4
2018-Apr-27 00:59N 01°18' E 104°19'613.3
2018-Apr-27 00:30N 01°22' E 104°24'816.0
2018-Apr-26 23:58N 01°28' E 104°30'  
2018-Apr-19 16:29N 35°56' E 130°20'612.4
2018-Apr-19 16:00N 35°50' E 130°20'712.5
2018-Apr-19 15:28N 35°44' E 130°20'612.5
2018-Apr-19 15:00N 35°38' E 130°20'612.3
2018-Apr-19 14:30N 35°32' E 130°20'1012.3
2018-Apr-19 13:41N 35°22' E 130°20'212.3
2018-Apr-19 13:30N 35°19' E 130°20'712.4
2018-Apr-19 12:57N 35°13' E 130°20'612.3
2018-Apr-19 12:30N 35°07' E 130°20'812.2
2018-Apr-19 11:53N 34°60' E 130°19'512.1
2018-Apr-19 11:30N 34°56' E 130°16'612.3
2018-Apr-19 11:00N 34°51' E 130°12'612.3
2018-Apr-19 10:30N 34°46' E 130°08'612.3
2018-Apr-19 10:00N 34°41' E 130°03'612.4
2018-Apr-19 09:30N 34°35' E 129°60'612.4
2018-Apr-19 09:00N 34°30' E 129°56'612.6
2018-Apr-19 08:30N 34°25' E 129°52'612.3
2018-Apr-19 08:00N 34°19' E 129°48'612.4
2018-Apr-19 07:30N 34°15' E 129°42'612.3
2018-Apr-19 07:00N 34°10' E 129°39'612.5
2018-Apr-19 06:30N 34°04' E 129°34'612.7
2018-Apr-19 06:00N 33°60' E 129°29'713.2
2018-Apr-19 05:30N 33°56' E 129°23'713.1
2018-Apr-19 05:00N 33°51' E 129°18'712.8
2018-Apr-19 04:29N 33°46' E 129°12'612.6
2018-Apr-19 03:58N 33°44' E 129°04'613.1
2018-Apr-19 03:30N 33°40' E 128°59'713.4
2018-Apr-19 03:00N 33°36' E 128°52'713.2
2018-Apr-19 02:30N 33°32' E 128°46'713.2
2018-Apr-19 01:59N 33°28' E 128°40'813.2
2018-Apr-19 01:24N 33°23' E 128°33'712.9
2018-Apr-19 00:51N 33°17' E 128°29'513.2
2018-Apr-19 00:30N 33°12' E 128°26'1712.9
2018-Apr-18 23:11N 32°56' E 128°21'213.1
2018-Apr-18 23:00N 32°54' E 128°21'  

Dump ship's entire track history